createdAt,value
2023-03-10T00:00:54.948Z,956.81
2023-03-10T00:01:54.764Z,956.74
2023-03-10T00:02:54.789Z,956.69
2023-03-10T00:03:54.769Z,956.75
2023-03-10T00:04:54.857Z,956.70
2023-03-10T00:05:54.732Z,956.69
2023-03-10T00:06:54.734Z,956.68
2023-03-10T00:07:54.697Z,956.64
2023-03-10T00:08:55.014Z,956.72
2023-03-10T00:09:54.682Z,956.65
2023-03-10T00:10:54.679Z,956.65
2023-03-10T00:11:54.694Z,956.65
2023-03-10T00:12:54.645Z,956.60
2023-03-10T00:13:55.047Z,956.53
2023-03-10T00:14:54.609Z,956.59
2023-03-10T00:15:54.668Z,956.53
2023-03-10T00:16:54.596Z,956.47
2023-03-10T00:17:54.590Z,956.53
2023-03-10T00:18:54.593Z,956.54
2023-03-10T00:19:54.642Z,956.54
2023-03-10T00:20:54.536Z,956.52
2023-03-10T00:21:54.573Z,956.52
2023-03-10T00:22:54.911Z,956.57
2023-03-10T00:23:54.801Z,956.43
2023-03-10T00:24:54.503Z,956.45
2023-03-10T00:25:54.454Z,956.39
2023-03-10T00:26:54.489Z,956.46
2023-03-10T00:27:54.439Z,956.31
2023-03-10T00:28:54.463Z,956.40
2023-03-10T00:29:54.462Z,956.49
2023-03-10T00:30:54.442Z,956.35
2023-03-10T00:31:54.418Z,956.33
2023-03-10T00:32:54.430Z,956.37
2023-03-10T00:33:54.384Z,956.34
2023-03-10T00:34:54.406Z,956.22
2023-03-10T00:35:54.423Z,956.33
2023-03-10T00:36:54.375Z,956.31
2023-03-10T00:37:54.348Z,956.23
2023-03-10T00:38:54.479Z,956.27
2023-03-10T00:39:54.309Z,956.30
2023-03-10T00:40:54.322Z,956.24
2023-03-10T00:41:54.298Z,956.27
2023-03-10T00:42:54.450Z,956.22
2023-03-10T00:43:54.259Z,956.17
2023-03-10T00:44:54.274Z,956.22
2023-03-10T00:45:54.326Z,956.14
2023-03-10T00:46:54.279Z,956.18
2023-03-10T00:47:54.669Z,956.13
2023-03-10T00:48:54.255Z,956.18
2023-03-10T00:49:54.198Z,956.16
2023-03-10T00:50:54.200Z,956.16
2023-03-10T00:51:54.191Z,956.14
2023-03-10T00:52:54.205Z,956.17
2023-03-10T00:53:54.330Z,956.16
2023-03-10T00:54:54.164Z,956.22
2023-03-10T00:55:54.132Z,956.13
2023-03-10T00:56:54.141Z,956.09
2023-03-10T00:57:54.109Z,956.12
2023-03-10T00:58:54.147Z,956.11
2023-03-10T00:59:54.099Z,956.04
2023-03-10T01:00:54.098Z,955.95
2023-03-10T01:01:54.187Z,956.08
2023-03-10T01:02:54.068Z,956.03
2023-03-10T01:03:54.115Z,956.00
2023-03-10T01:04:54.055Z,955.98
2023-03-10T01:05:54.011Z,955.94
2023-03-10T01:06:54.019Z,955.92
2023-03-10T01:07:53.998Z,955.94
2023-03-10T01:08:54.014Z,955.97
2023-03-10T01:09:54.028Z,955.92
2023-03-10T01:10:53.999Z,955.91
2023-03-10T01:11:53.947Z,955.88
2023-03-10T01:12:53.947Z,955.88
2023-03-10T01:13:53.961Z,955.81
2023-03-10T01:14:53.943Z,955.84
2023-03-10T01:15:53.898Z,955.80
2023-03-10T01:16:53.928Z,955.78
2023-03-10T01:17:53.903Z,955.78
2023-03-10T01:18:53.895Z,955.78
2023-03-10T01:19:53.972Z,955.68
2023-03-10T01:20:53.860Z,955.70
2023-03-10T01:21:53.829Z,955.66
2023-03-10T01:22:53.866Z,955.67
2023-03-10T01:23:53.907Z,955.63
2023-03-10T01:24:54.007Z,955.59
2023-03-10T01:25:53.795Z,955.62
2023-03-10T01:26:53.808Z,955.64
2023-03-10T01:27:53.766Z,955.55
2023-03-10T01:28:53.771Z,955.58
2023-03-10T01:29:53.933Z,955.56
2023-03-10T01:30:53.999Z,955.61
2023-03-10T01:31:53.720Z,955.53
2023-03-10T01:32:53.800Z,955.55
2023-03-10T01:33:53.720Z,955.54
2023-03-10T01:35:14.726Z,955.55
2023-03-10T01:35:53.750Z,955.52
2023-03-10T01:36:53.706Z,955.51
2023-03-10T01:37:53.639Z,955.54
2023-03-10T01:38:53.665Z,955.50
2023-03-10T01:39:53.636Z,955.46
2023-03-10T01:40:53.632Z,955.47
2023-03-10T01:41:53.592Z,955.39
2023-03-10T01:42:53.627Z,955.44
2023-03-10T01:43:53.575Z,955.48
2023-03-10T01:44:53.622Z,955.46
2023-03-10T01:45:53.549Z,955.44
2023-03-10T01:46:53.683Z,955.44
2023-03-10T01:47:53.741Z,955.48
2023-03-10T01:48:53.542Z,955.47
2023-03-10T01:49:53.502Z,955.47
2023-03-10T01:50:53.520Z,955.46
2023-03-10T01:51:53.541Z,955.44
2023-03-10T01:52:53.518Z,955.44
2023-03-10T01:53:53.459Z,955.43
2023-03-10T01:54:53.468Z,955.41
2023-03-10T01:55:53.457Z,955.46
2023-03-10T01:56:53.441Z,955.36
2023-03-10T01:57:53.412Z,955.39
2023-03-10T01:58:53.456Z,955.33
2023-03-10T01:59:53.398Z,955.33
2023-03-10T02:00:53.441Z,955.37
2023-03-10T02:01:53.423Z,955.37
2023-03-10T02:02:53.380Z,955.35
2023-03-10T02:03:53.353Z,955.39
2023-03-10T02:04:53.360Z,955.34
2023-03-10T02:05:53.326Z,955.35
2023-03-10T02:06:53.332Z,955.32
2023-03-10T02:07:53.305Z,955.33
2023-03-10T02:08:53.315Z,955.32
2023-03-10T02:09:53.273Z,955.34
2023-03-10T02:10:53.316Z,955.32
2023-03-10T02:11:53.249Z,955.34
2023-03-10T02:12:53.270Z,955.40
2023-03-10T02:13:53.238Z,955.41
2023-03-10T02:14:53.260Z,955.34
2023-03-10T02:15:53.235Z,955.34
2023-03-10T02:16:53.221Z,955.38
2023-03-10T02:17:53.295Z,955.39
2023-03-10T02:18:53.198Z,955.36
2023-03-10T02:19:53.161Z,955.43
2023-03-10T02:20:53.181Z,955.47
2023-03-10T02:21:53.132Z,955.42
2023-03-10T02:22:53.173Z,955.41
2023-03-10T02:24:00.992Z,955.47
2023-03-10T02:24:54.412Z,955.46
2023-03-10T02:25:53.400Z,955.38
2023-03-10T02:26:53.112Z,955.35
2023-03-10T02:27:53.072Z,955.37
2023-03-10T02:28:53.092Z,955.37
2023-03-10T02:29:59.374Z,955.33
2023-03-10T02:30:54.055Z,955.36
2023-03-10T02:31:53.096Z,955.32
2023-03-10T02:32:53.103Z,955.28
2023-03-10T02:33:53.073Z,955.26
2023-03-10T02:34:53.035Z,955.30
2023-03-10T02:35:53.024Z,955.30
2023-03-10T02:36:52.991Z,955.28
2023-03-10T02:37:52.961Z,955.25
2023-03-10T02:38:52.991Z,955.28
2023-03-10T02:39:52.956Z,955.29
2023-03-10T02:40:52.968Z,955.31
2023-03-10T02:41:52.947Z,955.36
2023-03-10T02:42:52.946Z,955.33
2023-03-10T02:43:52.886Z,955.27
2023-03-10T02:44:52.902Z,955.29
2023-03-10T02:45:52.935Z,955.23
2023-03-10T02:46:52.924Z,955.31
2023-03-10T02:47:53.457Z,955.27
2023-03-10T02:48:52.851Z,955.29
2023-03-10T02:49:52.842Z,955.29
2023-03-10T02:50:52.828Z,955.27
2023-03-10T02:51:52.801Z,955.28
2023-03-10T02:52:52.819Z,955.29
2023-03-10T02:53:52.783Z,955.34
2023-03-10T02:54:52.801Z,955.27
2023-03-10T02:55:52.763Z,955.30
2023-03-10T02:56:52.763Z,955.26
2023-03-10T02:57:52.718Z,955.29
2023-03-10T02:58:52.762Z,955.38
2023-03-10T02:59:52.698Z,955.28
2023-03-10T03:00:52.820Z,955.28
2023-03-10T03:01:52.681Z,955.27
2023-03-10T03:02:52.688Z,955.28
2023-03-10T03:03:52.679Z,955.28
2023-03-10T03:04:52.715Z,955.31
2023-03-10T03:05:52.848Z,955.43
2023-03-10T03:06:52.669Z,955.53
2023-03-10T03:07:54.071Z,955.48
2023-03-10T03:08:52.628Z,955.53
2023-03-10T03:09:52.587Z,955.41
2023-03-10T03:10:52.634Z,955.47
2023-03-10T03:11:52.569Z,955.53
2023-03-10T03:12:52.807Z,955.33
2023-03-10T03:13:52.601Z,955.38
2023-03-10T03:14:52.570Z,955.42
2023-03-10T03:15:52.543Z,955.30
2023-03-10T03:16:52.548Z,955.31
2023-03-10T03:17:52.609Z,955.27
2023-03-10T03:18:52.496Z,955.26
2023-03-10T03:19:52.516Z,955.34
2023-03-10T03:20:52.506Z,955.33
2023-03-10T03:21:52.493Z,955.28
2023-03-10T03:22:52.445Z,955.31
2023-03-10T03:23:52.477Z,955.33
2023-03-10T03:24:52.426Z,955.31
2023-03-10T03:25:52.446Z,955.34
2023-03-10T03:26:52.410Z,955.29
2023-03-10T03:27:52.430Z,955.28
2023-03-10T03:28:52.400Z,955.31
2023-03-10T03:29:52.409Z,955.36
2023-03-10T03:30:52.355Z,955.39
2023-03-10T03:31:52.410Z,955.44
2023-03-10T03:32:52.554Z,955.32
2023-03-10T03:33:52.352Z,955.31
2023-03-10T03:34:52.316Z,955.29
2023-03-10T03:35:52.360Z,955.33
2023-03-10T03:36:52.273Z,955.38
2023-03-10T03:37:52.323Z,955.40
2023-03-10T03:38:52.277Z,955.39
2023-03-10T03:39:52.333Z,955.39
2023-03-10T03:40:52.278Z,955.33
2023-03-10T03:41:52.254Z,955.34
2023-03-10T03:42:52.223Z,955.27
2023-03-10T03:43:52.244Z,955.30
2023-03-10T03:44:52.206Z,955.29
2023-03-10T03:45:52.224Z,955.25
2023-03-10T03:46:52.222Z,955.19
2023-03-10T03:47:52.256Z,955.18
2023-03-10T03:48:52.157Z,955.23
2023-03-10T03:49:52.154Z,955.25
2023-03-10T03:50:52.126Z,955.27
2023-03-10T03:51:52.132Z,955.30
2023-03-10T03:52:52.158Z,955.33
2023-03-10T03:53:52.270Z,955.32
2023-03-10T03:54:52.078Z,955.26
2023-03-10T03:55:52.084Z,955.27
2023-03-10T03:56:52.067Z,955.26
2023-03-10T03:57:52.092Z,955.29
2023-03-10T03:58:52.033Z,955.22
2023-03-10T03:59:52.063Z,955.25
2023-03-10T04:00:52.127Z,955.21
2023-03-10T04:01:52.016Z,955.24
2023-03-10T04:02:52.066Z,955.25
2023-03-10T04:03:52.100Z,955.20
2023-03-10T04:04:52.066Z,955.20
2023-03-10T04:05:51.993Z,955.17
2023-03-10T04:06:51.951Z,955.18
2023-03-10T04:07:51.963Z,955.15
2023-03-10T04:08:51.934Z,955.17
2023-03-10T04:09:51.964Z,955.10
2023-03-10T04:10:51.903Z,955.11
2023-03-10T04:11:51.914Z,955.06
2023-03-10T04:12:51.887Z,955.06
2023-03-10T04:13:52.098Z,955.03
2023-03-10T04:14:51.862Z,955.05
2023-03-10T04:15:51.925Z,955.06
2023-03-10T04:16:51.874Z,955.07
2023-03-10T04:17:51.843Z,955.01
2023-03-10T04:18:51.834Z,955.02
2023-03-10T04:20:06.348Z,955.01
2023-03-10T04:20:52.971Z,955.03
2023-03-10T04:21:51.809Z,955.08
2023-03-10T04:22:51.791Z,955.13
2023-03-10T04:23:51.808Z,955.12
2023-03-10T04:24:51.741Z,955.08
2023-03-10T04:25:51.751Z,955.09
2023-03-10T04:26:51.731Z,955.11
2023-03-10T04:27:51.733Z,955.13
2023-03-10T04:28:51.724Z,955.14
2023-03-10T04:29:51.713Z,955.03
2023-03-10T04:30:51.727Z,955.08
2023-03-10T04:32:04.748Z,955.13
2023-03-10T04:32:52.732Z,955.12
2023-03-10T04:33:51.683Z,955.10
2023-03-10T04:34:51.732Z,955.11
2023-03-10T04:35:51.750Z,955.09
2023-03-10T04:36:51.633Z,955.10
2023-03-10T04:37:51.622Z,955.06
2023-03-10T04:38:51.624Z,955.15
2023-03-10T04:39:51.596Z,955.16
2023-03-10T04:40:51.590Z,955.15
2023-03-10T04:41:51.596Z,955.14
2023-03-10T04:42:51.544Z,955.18
2023-03-10T04:43:51.577Z,955.17
2023-03-10T04:44:51.524Z,955.17
2023-03-10T04:45:51.559Z,955.14
2023-03-10T04:46:51.517Z,955.13
2023-03-10T04:47:51.823Z,955.18
2023-03-10T04:48:51.474Z,955.12
2023-03-10T04:49:51.495Z,955.09
2023-03-10T04:50:51.455Z,955.11
2023-03-10T04:51:51.492Z,955.09
2023-03-10T04:52:51.474Z,955.07
2023-03-10T04:53:51.476Z,955.04
2023-03-10T04:54:52.080Z,955.04
2023-03-10T04:55:51.442Z,955.12
2023-03-10T04:56:51.414Z,955.08
2023-03-10T04:57:51.395Z,955.06
2023-03-10T04:58:51.365Z,955.13
2023-03-10T04:59:51.447Z,955.05
2023-03-10T05:01:02.415Z,955.05
2023-03-10T05:01:52.534Z,955.03
2023-03-10T05:02:51.327Z,955.02
2023-03-10T05:03:51.338Z,955.06
2023-03-10T05:04:51.436Z,955.03
2023-03-10T05:05:51.306Z,955.02
2023-03-10T05:06:51.289Z,955.06
2023-03-10T05:07:51.293Z,955.09
2023-03-10T05:08:51.272Z,955.01
2023-03-10T05:09:51.261Z,955.07
2023-03-10T05:10:51.240Z,955.04
2023-03-10T05:11:51.249Z,955.03
2023-03-10T05:12:51.216Z,955.06
2023-03-10T05:13:51.244Z,955.06
2023-03-10T05:14:51.190Z,955.05
2023-03-10T05:15:51.575Z,955.04
2023-03-10T05:16:51.210Z,955.05
2023-03-10T05:17:51.239Z,955.04
2023-03-10T05:18:51.230Z,955.01
2023-03-10T05:19:51.219Z,955.00
2023-03-10T05:20:51.128Z,955.05
2023-03-10T05:21:51.131Z,955.03
2023-03-10T05:22:51.116Z,955.03
2023-03-10T05:23:51.133Z,954.99
2023-03-10T05:24:51.078Z,954.96
2023-03-10T05:25:51.140Z,954.98
2023-03-10T05:26:51.188Z,954.97
2023-03-10T05:27:51.090Z,955.00
2023-03-10T05:28:51.609Z,955.01
2023-03-10T05:29:51.044Z,954.95
2023-03-10T05:30:51.633Z,954.95
2023-03-10T05:31:51.052Z,954.90
2023-03-10T05:32:51.050Z,954.91
2023-03-10T05:33:51.036Z,954.88
2023-03-10T05:34:50.988Z,954.86
2023-03-10T05:35:51.200Z,954.88
2023-03-10T05:36:50.969Z,954.91
2023-03-10T05:37:51.050Z,954.92
2023-03-10T05:38:50.908Z,954.88
2023-03-10T05:39:50.917Z,954.92
2023-03-10T05:40:50.902Z,954.90
2023-03-10T05:41:50.897Z,954.94
2023-03-10T05:42:50.880Z,954.92
2023-03-10T05:43:50.891Z,954.89
2023-03-10T05:44:50.848Z,954.86
2023-03-10T05:45:50.858Z,954.84
2023-03-10T05:46:50.885Z,954.83
2023-03-10T05:47:51.134Z,954.87
2023-03-10T05:48:50.790Z,954.90
2023-03-10T05:49:50.824Z,954.84
2023-03-10T05:50:50.779Z,954.83
2023-03-10T05:51:50.803Z,954.79
2023-03-10T05:52:50.763Z,954.75
2023-03-10T05:53:50.809Z,954.74
2023-03-10T05:54:50.738Z,954.73
2023-03-10T05:55:51.021Z,954.76
2023-03-10T05:56:50.706Z,954.75
2023-03-10T05:57:50.727Z,954.76
2023-03-10T05:58:50.759Z,954.77
2023-03-10T05:59:50.768Z,954.79
2023-03-10T06:00:50.728Z,954.77
2023-03-10T06:01:50.674Z,954.82
2023-03-10T06:02:50.700Z,954.73
2023-03-10T06:03:50.783Z,954.71
2023-03-10T06:04:50.668Z,954.70
2023-03-10T06:05:50.653Z,954.70
2023-03-10T06:06:50.595Z,954.68
2023-03-10T06:07:50.621Z,954.64
2023-03-10T06:08:50.570Z,954.57
2023-03-10T06:09:51.062Z,954.59
2023-03-10T06:10:50.646Z,954.58
2023-03-10T06:11:50.590Z,954.61
2023-03-10T06:12:50.566Z,954.58
2023-03-10T06:13:50.583Z,954.61
2023-03-10T06:14:50.577Z,954.60
2023-03-10T06:15:50.708Z,954.56
2023-03-10T06:16:50.895Z,954.58
2023-03-10T06:17:50.618Z,954.58
2023-03-10T06:18:50.607Z,954.60
2023-03-10T06:19:50.637Z,954.64
2023-03-10T06:20:50.456Z,954.68
2023-03-10T06:21:50.480Z,954.67
2023-03-10T06:22:50.528Z,954.71
2023-03-10T06:23:50.705Z,954.68
2023-03-10T06:24:50.411Z,954.69
2023-03-10T06:25:50.666Z,954.65
2023-03-10T06:26:50.458Z,954.71
2023-03-10T06:27:50.392Z,954.67
2023-03-10T06:28:50.359Z,954.68
2023-03-10T06:29:50.401Z,954.69
2023-03-10T06:30:50.378Z,954.64
2023-03-10T06:31:50.470Z,954.70
2023-03-10T06:32:50.369Z,954.69
2023-03-10T06:33:50.319Z,954.70
2023-03-10T06:34:50.297Z,954.75
2023-03-10T06:35:50.369Z,954.78
2023-03-10T06:36:50.646Z,954.78
2023-03-10T06:37:50.544Z,954.74
2023-03-10T06:38:50.248Z,954.76
2023-03-10T06:39:50.251Z,954.78
2023-03-10T06:40:50.269Z,954.80
2023-03-10T06:41:50.241Z,954.82
2023-03-10T06:42:50.231Z,954.85
2023-03-10T06:43:50.219Z,954.82
2023-03-10T06:44:50.185Z,954.88
2023-03-10T06:45:50.247Z,954.80
2023-03-10T06:46:50.150Z,954.85
2023-03-10T06:47:50.161Z,954.81
2023-03-10T06:48:50.152Z,954.87
2023-03-10T06:49:50.145Z,954.86
2023-03-10T06:50:50.118Z,954.86
2023-03-10T06:51:50.169Z,954.85
2023-03-10T06:52:50.090Z,954.89
2023-03-10T06:53:50.118Z,954.87
2023-03-10T06:54:50.096Z,954.86
2023-03-10T06:55:50.085Z,954.87
2023-03-10T06:56:50.052Z,954.81
2023-03-10T06:57:50.079Z,954.77
2023-03-10T06:58:50.035Z,954.81
2023-03-10T06:59:50.094Z,954.80
2023-03-10T07:00:50.095Z,954.79
2023-03-10T07:01:50.026Z,954.76
2023-03-10T07:02:49.964Z,954.80
2023-03-10T07:03:50.009Z,954.75
2023-03-10T07:04:49.971Z,954.76
2023-03-10T07:05:49.947Z,954.79
2023-03-10T07:06:49.969Z,954.78
2023-03-10T07:07:49.930Z,954.80
2023-03-10T07:08:49.900Z,954.78
2023-03-10T07:09:49.923Z,954.84
2023-03-10T07:10:51.700Z,954.85
2023-03-10T07:11:50.100Z,954.82
2023-03-10T07:12:49.961Z,954.76
2023-03-10T07:13:49.865Z,954.76
2023-03-10T07:14:49.847Z,954.76
2023-03-10T07:15:49.880Z,954.76
2023-03-10T07:16:49.885Z,954.76
2023-03-10T07:17:50.112Z,954.76
2023-03-10T07:18:50.106Z,954.76
2023-03-10T07:19:49.798Z,954.81
2023-03-10T07:20:49.755Z,954.83
2023-03-10T07:21:49.771Z,954.82
2023-03-10T07:22:49.734Z,954.82
2023-03-10T07:23:49.773Z,954.85
2023-03-10T07:24:49.705Z,954.87
2023-03-10T07:25:49.730Z,954.91
2023-03-10T07:26:49.705Z,954.89
2023-03-10T07:27:49.719Z,954.92
2023-03-10T07:28:49.696Z,954.94
2023-03-10T07:29:49.715Z,954.87
2023-03-10T07:30:50.066Z,954.91
2023-03-10T07:31:50.101Z,954.93
2023-03-10T07:32:50.049Z,954.94
2023-03-10T07:33:49.633Z,954.96
2023-03-10T07:34:49.639Z,954.91
2023-03-10T07:35:49.631Z,954.89
2023-03-10T07:36:49.592Z,954.89
2023-03-10T07:37:49.847Z,954.88
2023-03-10T07:38:49.847Z,954.88
2023-03-10T07:39:49.542Z,954.88
2023-03-10T07:40:49.619Z,954.86
2023-03-10T07:41:49.601Z,954.88
2023-03-10T07:42:49.533Z,954.88
2023-03-10T07:43:49.503Z,954.83
2023-03-10T07:44:49.513Z,954.86
2023-03-10T07:45:49.490Z,954.88
2023-03-10T07:46:49.483Z,954.89
2023-03-10T07:47:49.495Z,954.91
2023-03-10T07:48:49.461Z,954.95
2023-03-10T07:49:49.450Z,954.90
2023-03-10T07:50:49.445Z,954.92
2023-03-10T07:51:49.514Z,954.95
2023-03-10T07:52:49.437Z,954.96
2023-03-10T07:53:49.453Z,954.93
2023-03-10T07:54:49.393Z,954.98
2023-03-10T07:55:49.372Z,954.95
2023-03-10T07:56:51.084Z,954.92
2023-03-10T07:57:49.366Z,954.90
2023-03-10T07:58:49.343Z,954.95
2023-03-10T07:59:49.459Z,954.93
2023-03-10T08:00:49.345Z,954.93
2023-03-10T08:01:49.323Z,954.95
2023-03-10T08:02:49.283Z,954.92
2023-03-10T08:03:49.339Z,954.95
2023-03-10T08:04:49.289Z,954.93
2023-03-10T08:05:49.250Z,954.98
2023-03-10T08:06:49.278Z,954.98
2023-03-10T08:07:49.232Z,954.99
2023-03-10T08:08:49.352Z,954.99
2023-03-10T08:09:49.225Z,955.01
2023-03-10T08:10:49.224Z,954.96
2023-03-10T08:11:49.179Z,954.95
2023-03-10T08:12:49.979Z,954.93
2023-03-10T08:13:49.272Z,954.97
2023-03-10T08:14:49.172Z,955.00
2023-03-10T08:15:49.227Z,954.98
2023-03-10T08:16:49.151Z,954.95
2023-03-10T08:17:49.119Z,954.96
2023-03-10T08:18:49.140Z,954.99
2023-03-10T08:19:49.115Z,954.99
2023-03-10T08:20:49.094Z,954.95
2023-03-10T08:21:49.125Z,955.03
2023-03-10T08:22:49.115Z,955.01
2023-03-10T08:23:49.057Z,955.03
2023-03-10T08:24:49.096Z,954.99
2023-03-10T08:25:49.039Z,954.99
2023-03-10T08:26:49.042Z,954.98
2023-03-10T08:27:48.996Z,955.07
2023-03-10T08:28:49.022Z,955.02
2023-03-10T08:29:49.009Z,955.04
2023-03-10T08:31:03.167Z,954.97
2023-03-10T08:31:49.954Z,954.96
2023-03-10T08:32:49.240Z,954.97
2023-03-10T08:33:49.238Z,954.98
2023-03-10T08:34:48.939Z,954.98
2023-03-10T08:35:48.948Z,954.97
2023-03-10T08:36:48.911Z,954.94
2023-03-10T08:37:48.903Z,954.97
2023-03-10T08:38:49.140Z,954.97
2023-03-10T08:39:49.133Z,954.95
2023-03-10T08:40:48.879Z,954.99
2023-03-10T08:41:48.874Z,954.93
2023-03-10T08:42:48.905Z,954.93
2023-03-10T08:43:49.517Z,954.93
2023-03-10T08:44:48.845Z,954.96
2023-03-10T08:45:48.796Z,954.99
2023-03-10T08:46:48.904Z,954.96
2023-03-10T08:47:48.804Z,955.01
2023-03-10T08:48:48.779Z,954.99
2023-03-10T08:49:49.096Z,954.97
2023-03-10T08:50:48.743Z,955.06
2023-03-10T08:51:48.742Z,955.05
2023-03-10T08:52:48.745Z,955.05
2023-03-10T08:53:48.746Z,955.05
2023-03-10T08:54:48.731Z,955.02
2023-03-10T08:55:48.675Z,955.06
2023-03-10T08:56:48.902Z,955.04
2023-03-10T08:57:48.871Z,955.07
2023-03-10T08:58:48.976Z,955.09
2023-03-10T08:59:48.992Z,955.04
2023-03-10T09:00:48.871Z,955.04
2023-03-10T09:01:48.685Z,955.06
2023-03-10T09:02:48.616Z,955.10
2023-03-10T09:03:48.592Z,955.06
2023-03-10T09:04:48.617Z,955.11
2023-03-10T09:05:48.613Z,955.10
2023-03-10T09:06:48.566Z,955.07
2023-03-10T09:07:48.571Z,955.09
2023-03-10T09:08:48.543Z,955.07
2023-03-10T09:09:49.343Z,955.07
2023-03-10T09:10:48.553Z,955.07
2023-03-10T09:11:48.538Z,955.11
2023-03-10T09:12:48.501Z,955.09
2023-03-10T09:13:48.662Z,955.14
2023-03-10T09:14:48.581Z,955.10
2023-03-10T09:15:48.438Z,955.08
2023-03-10T09:18:00.170Z,955.11
2023-03-10T09:19:00.172Z,955.12
2023-03-10T09:20:00.136Z,955.11
2023-03-10T09:21:00.138Z,955.12
2023-03-10T09:22:00.128Z,955.10
2023-03-10T09:23:00.969Z,955.12
2023-03-10T09:24:00.141Z,955.12
2023-03-10T09:25:00.817Z,955.10
2023-03-10T09:26:00.107Z,955.11
2023-03-10T09:27:00.112Z,955.10
2023-03-10T09:28:00.054Z,955.13
2023-03-10T09:29:00.086Z,955.15
2023-03-10T09:30:01.351Z,955.08
2023-03-10T09:31:00.121Z,955.07
2023-03-10T09:32:00.070Z,955.10
2023-03-10T09:33:00.153Z,955.05
2023-03-10T09:33:59.989Z,955.08
2023-03-10T09:35:00.017Z,955.11
2023-03-10T09:36:08.170Z,955.06
2023-03-10T09:37:00.990Z,955.14
2023-03-10T09:37:59.968Z,955.12
2023-03-10T09:39:00.132Z,955.09
2023-03-10T09:40:00.102Z,955.13
2023-03-10T09:40:59.954Z,955.14
2023-03-10T09:41:59.903Z,955.13
2023-03-10T09:42:59.931Z,955.14
2023-03-10T09:43:59.941Z,955.15
2023-03-10T09:45:00.042Z,955.14
2023-03-10T09:45:59.917Z,955.07
2023-03-10T09:47:00.156Z,955.10
2023-03-10T09:47:59.866Z,955.11
2023-03-10T09:48:59.847Z,955.07
2023-03-10T09:49:59.826Z,955.05
2023-03-10T09:50:59.835Z,955.09
2023-03-10T09:51:59.828Z,955.20
2023-03-10T09:52:59.837Z,955.15
2023-03-10T09:53:59.761Z,955.17
2023-03-10T09:54:59.853Z,955.21
2023-03-10T09:55:59.749Z,955.16
2023-03-10T09:56:59.818Z,955.15
2023-03-10T09:58:00.903Z,955.15
2023-03-10T09:58:59.775Z,955.13
2023-03-10T09:59:59.764Z,955.11
2023-03-10T10:00:59.964Z,955.14
2023-03-10T10:01:59.703Z,955.14
2023-03-10T10:02:59.989Z,955.11
2023-03-10T10:03:59.999Z,955.04
2023-03-10T10:05:01.913Z,955.10
2023-03-10T10:05:59.681Z,955.06
2023-03-10T10:06:59.662Z,955.04
2023-03-10T10:07:59.620Z,955.04
2023-03-10T10:09:04.737Z,955.05
2023-03-10T10:10:00.774Z,955.07
2023-03-10T10:10:59.628Z,955.05
2023-03-10T10:11:59.579Z,955.10
2023-03-10T10:12:59.602Z,955.12
2023-03-10T10:14:01.596Z,955.14
2023-03-10T10:14:59.566Z,955.19
2023-03-10T10:16:18.397Z,955.15
2023-03-10T10:17:00.619Z,955.22
2023-03-10T10:18:08.619Z,955.25
2023-03-10T10:19:00.579Z,955.19
2023-03-10T10:19:59.565Z,955.27
2023-03-10T10:20:59.481Z,955.21
2023-03-10T10:21:59.474Z,955.13
2023-03-10T10:22:59.497Z,955.09
2023-03-10T10:23:59.445Z,955.19
2023-03-10T10:24:59.498Z,955.12
2023-03-10T10:26:00.919Z,955.17
2023-03-10T10:26:59.444Z,955.20
2023-03-10T10:27:59.423Z,955.26
2023-03-10T10:28:59.409Z,955.13
2023-03-10T10:29:59.452Z,955.15
2023-03-10T10:30:59.437Z,955.20
2023-03-10T10:32:00.224Z,955.20
2023-03-10T10:32:59.490Z,955.29
2023-03-10T10:33:59.624Z,955.31
2023-03-10T10:34:59.362Z,955.22
2023-03-10T10:35:59.371Z,955.22
2023-03-10T10:36:59.329Z,955.19
2023-03-10T10:37:59.294Z,955.14
2023-03-10T10:38:59.329Z,955.14
2023-03-10T10:39:59.398Z,955.16
2023-03-10T10:40:59.397Z,955.18
2023-03-10T10:41:59.274Z,955.18
2023-03-10T10:42:59.235Z,955.13
2023-03-10T10:43:59.270Z,955.19
2023-03-10T10:44:59.238Z,955.14
2023-03-10T10:45:59.390Z,955.16
2023-03-10T10:46:59.354Z,955.20
2023-03-10T10:47:59.220Z,955.14
2023-03-10T10:48:59.172Z,955.12
2023-03-10T10:49:59.189Z,955.20
2023-03-10T10:50:59.160Z,955.21
2023-03-10T10:51:59.502Z,955.20
2023-03-10T10:52:59.139Z,955.25
2023-03-10T10:53:59.148Z,955.31
2023-03-10T10:54:59.106Z,955.26
2023-03-10T10:55:59.128Z,955.27
2023-03-10T10:56:59.109Z,955.28
2023-03-10T10:58:01.304Z,955.30
2023-03-10T10:58:59.068Z,955.26
2023-03-10T10:59:59.090Z,955.26
2023-03-10T11:00:59.473Z,955.29
2023-03-10T11:01:59.055Z,955.27
2023-03-10T11:02:59.072Z,955.23
2023-03-10T11:03:59.048Z,955.21
2023-03-10T11:04:59.051Z,955.17
2023-03-10T11:05:59.019Z,955.16
2023-03-10T11:06:59.000Z,955.16
2023-03-10T11:07:58.998Z,955.17
2023-03-10T11:08:58.959Z,955.11
2023-03-10T11:09:58.980Z,955.14
2023-03-10T11:10:58.947Z,955.12
2023-03-10T11:11:58.975Z,955.08
2023-03-10T11:12:58.917Z,955.10
2023-03-10T11:13:58.945Z,955.14
2023-03-10T11:14:58.899Z,955.07
2023-03-10T11:15:58.921Z,955.10
2023-03-10T11:16:58.869Z,955.05
2023-03-10T11:17:58.895Z,955.06
2023-03-10T11:18:58.858Z,955.10
2023-03-10T11:19:59.284Z,955.07
2023-03-10T11:20:59.060Z,955.09
2023-03-10T11:21:58.879Z,955.02
2023-03-10T11:22:58.820Z,955.07
2023-03-10T11:23:58.843Z,955.06
2023-03-10T11:24:58.799Z,955.05
2023-03-10T11:25:58.804Z,954.99
2023-03-10T11:26:58.951Z,955.03
2023-03-10T11:27:58.784Z,955.04
2023-03-10T11:28:58.782Z,955.05
2023-03-10T11:29:58.748Z,954.99
2023-03-10T11:30:58.808Z,955.00
2023-03-10T11:31:58.729Z,954.97
2023-03-10T11:32:58.688Z,955.03
2023-03-10T11:33:58.765Z,954.96
2023-03-10T11:34:58.821Z,954.94
2023-03-10T11:36:01.016Z,954.95
2023-03-10T11:36:58.674Z,954.95
2023-03-10T11:37:58.658Z,954.94
2023-03-10T11:38:58.632Z,954.89
2023-03-10T11:39:58.639Z,954.90
2023-03-10T11:40:58.636Z,955.04
2023-03-10T11:41:58.645Z,954.94
2023-03-10T11:42:58.574Z,954.92
2023-03-10T11:43:58.605Z,954.90
2023-03-10T11:44:58.582Z,954.95
2023-03-10T11:45:58.572Z,954.95
2023-03-10T11:46:58.571Z,954.93
2023-03-10T11:47:58.547Z,954.96
2023-03-10T11:48:58.505Z,954.96
2023-03-10T11:49:58.511Z,954.92
2023-03-10T11:50:58.488Z,954.95
2023-03-10T11:51:58.601Z,954.95
2023-03-10T11:52:58.456Z,955.01
2023-03-10T11:53:58.464Z,955.04
2023-03-10T11:54:58.422Z,954.88
2023-03-10T11:55:58.450Z,954.93
2023-03-10T11:56:58.420Z,954.90
2023-03-10T11:57:58.519Z,954.86
2023-03-10T11:58:58.419Z,954.85
2023-03-10T11:59:58.413Z,954.81
2023-03-10T12:00:58.362Z,954.78
2023-03-10T12:01:58.496Z,954.86
2023-03-10T12:02:58.363Z,954.84
2023-03-10T12:03:58.524Z,954.78
2023-03-10T12:04:58.392Z,954.72
2023-03-10T12:05:58.335Z,954.77
2023-03-10T12:06:58.308Z,954.69
2023-03-10T12:07:58.567Z,954.74
2023-03-10T12:08:58.475Z,954.73
2023-03-10T12:10:02.561Z,954.70
2023-03-10T12:10:58.237Z,954.71
2023-03-10T12:12:02.342Z,954.65
2023-03-10T12:12:58.349Z,954.64
2023-03-10T12:13:58.230Z,954.63
2023-03-10T12:14:58.208Z,954.64
2023-03-10T12:15:58.259Z,954.53
2023-03-10T12:16:58.482Z,954.51
2023-03-10T12:17:58.260Z,954.50
2023-03-10T12:18:58.150Z,954.56
2023-03-10T12:19:58.239Z,954.53
2023-03-10T12:20:58.159Z,954.52
2023-03-10T12:21:58.146Z,954.56
2023-03-10T12:22:58.118Z,954.54
2023-03-10T12:23:58.144Z,954.61
2023-03-10T12:24:58.108Z,954.58
2023-03-10T12:25:58.093Z,954.64
2023-03-10T12:26:58.065Z,954.50
2023-03-10T12:27:58.092Z,954.63
2023-03-10T12:28:58.206Z,954.62
2023-03-10T12:29:58.087Z,954.59